createdAt,value
2023-02-02T00:00:17.731Z,83.48
2023-02-02T00:00:52.577Z,83.62
2023-02-02T00:01:25.455Z,83.25
2023-02-02T00:02:03.903Z,83.21
2023-02-02T00:02:36.089Z,83.09
2023-02-02T00:03:09.045Z,83.49
2023-02-02T00:03:43.871Z,83.44
2023-02-02T00:04:17.988Z,83.34
2023-02-02T00:04:52.748Z,83.42
2023-02-02T00:05:25.170Z,83.11
2023-02-02T00:05:57.847Z,83.43
2023-02-02T00:06:34.173Z,83.14
2023-02-02T00:07:07.583Z,83.62
2023-02-02T00:07:39.806Z,83.19
2023-02-02T00:08:11.976Z,83.52
2023-02-02T00:08:46.905Z,83.26
2023-02-02T00:09:20.912Z,83.63
2023-02-02T00:09:53.003Z,83.08
2023-02-02T00:10:27.796Z,83.24
2023-02-02T00:10:59.960Z,83.23
2023-02-02T00:11:32.128Z,83.42
2023-02-02T00:12:07.187Z,83.47
2023-02-02T00:12:39.380Z,83.07
2023-02-02T00:13:11.680Z,83.44
2023-02-02T00:13:44.555Z,83.33
2023-02-02T00:14:19.408Z,82.91
2023-02-02T00:14:51.602Z,83.17
2023-02-02T00:15:26.494Z,83.10
2023-02-02T00:15:58.742Z,82.91
2023-02-02T00:16:42.399Z,83.17
2023-02-02T00:17:14.556Z,83.21
2023-02-02T00:17:46.718Z,83.17
2023-02-02T00:18:21.408Z,83.22
2023-02-02T00:18:53.653Z,83.38
2023-02-02T00:19:31.693Z,82.94
2023-02-02T00:20:04.509Z,83.01
2023-02-02T00:20:36.659Z,82.93
2023-02-02T00:21:08.762Z,83.02
2023-02-02T00:21:43.872Z,82.78
2023-02-02T00:22:17.037Z,83.14
2023-02-02T00:22:49.180Z,82.76
2023-02-02T00:23:23.875Z,82.76
2023-02-02T00:23:56.027Z,83.14
2023-02-02T00:24:28.536Z,82.81
2023-02-02T00:25:03.474Z,82.92
2023-02-02T00:25:35.643Z,82.95
2023-02-02T00:26:07.763Z,83.07
2023-02-02T00:26:44.422Z,82.90
2023-02-02T00:27:16.623Z,82.84
2023-02-02T00:27:49.030Z,83.18
2023-02-02T00:28:23.708Z,83.02
2023-02-02T00:28:55.869Z,83.13
2023-02-02T00:29:29.863Z,82.77
2023-02-02T00:30:04.610Z,82.66
2023-02-02T00:30:39.450Z,82.90
2023-02-02T00:31:11.992Z,82.88
2023-02-02T00:31:46.825Z,82.86
2023-02-02T00:32:19.785Z,83.03
2023-02-02T00:32:53.311Z,82.80
2023-02-02T00:33:28.074Z,83.01
2023-02-02T00:34:00.865Z,82.79
2023-02-02T00:34:34.048Z,82.85
2023-02-02T00:35:09.474Z,82.79
2023-02-02T00:35:43.050Z,82.79
2023-02-02T00:36:15.398Z,82.50
2023-02-02T00:36:51.308Z,82.75
2023-02-02T00:37:23.531Z,82.87
2023-02-02T00:37:55.679Z,82.87
2023-02-02T00:38:28.456Z,82.59
2023-02-02T00:39:03.191Z,82.88
2023-02-02T00:39:35.292Z,82.36
2023-02-02T00:40:09.144Z,82.65
2023-02-02T00:40:43.832Z,82.82
2023-02-02T00:41:16.336Z,82.55
2023-02-02T00:41:48.832Z,82.34
2023-02-02T00:42:23.548Z,82.80
2023-02-02T00:42:55.819Z,82.61
2023-02-02T00:43:27.917Z,82.64
2023-02-02T00:44:15.193Z,82.50
2023-02-02T00:45:02.444Z,82.40
2023-02-02T00:45:37.127Z,82.67
2023-02-02T00:46:17.217Z,82.84
2023-02-02T00:46:49.379Z,82.73
2023-02-02T00:47:22.600Z,82.71
2023-02-02T00:47:57.342Z,82.68
2023-02-02T00:48:29.557Z,82.69
2023-02-02T00:49:01.632Z,82.57
2023-02-02T00:49:36.373Z,82.51
2023-02-02T00:50:09.626Z,82.67
2023-02-02T00:50:41.728Z,82.57
2023-02-02T00:51:16.439Z,82.24
2023-02-02T00:51:48.696Z,82.54
2023-02-02T00:52:21.010Z,82.51
2023-02-02T00:52:55.768Z,82.44
2023-02-02T00:53:27.953Z,82.41
2023-02-02T00:54:00.138Z,82.67
2023-02-02T00:54:34.860Z,82.43
2023-02-02T00:55:09.480Z,82.21
2023-02-02T00:55:41.718Z,82.54
2023-02-02T00:56:16.359Z,82.30
2023-02-02T00:56:48.513Z,82.58
2023-02-02T00:57:20.629Z,82.54
2023-02-02T00:57:55.866Z,82.58
2023-02-02T00:58:28.278Z,82.51
2023-02-02T00:59:00.728Z,82.28
2023-02-02T00:59:32.992Z,82.56
2023-02-02T01:00:10.910Z,82.04
2023-02-02T01:00:43.125Z,82.48
2023-02-02T01:01:22.338Z,82.18
2023-02-02T01:01:57.194Z,82.32
2023-02-02T01:02:29.452Z,82.52
2023-02-02T01:03:04.613Z,82.40
2023-02-02T01:03:39.491Z,82.60
2023-02-02T01:04:11.781Z,82.31
2023-02-02T01:04:45.410Z,82.38
2023-02-02T01:05:20.603Z,82.41
2023-02-02T01:05:52.683Z,82.43
2023-02-02T01:06:25.262Z,82.40
2023-02-02T04:33:46.177Z,86.87
2023-02-02T04:34:18.492Z,86.99
2023-02-02T04:34:50.620Z,86.73
2023-02-02T04:35:25.735Z,86.95
2023-02-02T04:35:57.976Z,87.14
2023-02-02T04:36:32.824Z,87.01
2023-02-02T04:37:05.016Z,87.35
2023-02-02T04:37:37.129Z,87.42
2023-02-02T04:38:11.968Z,87.75
2023-02-02T04:38:44.145Z,87.79
2023-02-02T04:39:16.268Z,88.00
2023-02-02T04:39:51.491Z,87.92
2023-02-02T04:40:23.940Z,88.04
2023-02-02T04:40:56.127Z,88.00
2023-02-02T04:41:30.898Z,88.16
2023-02-02T04:42:03.766Z,87.59
2023-02-02T04:42:35.972Z,88.21
2023-02-02T04:43:11.013Z,87.61
2023-02-02T04:43:43.426Z,87.25
2023-02-02T04:44:16.881Z,87.03
2023-02-02T04:44:51.608Z,87.46
2023-02-02T04:45:24.275Z,87.61
2023-02-02T04:45:57.362Z,87.10
2023-02-02T04:46:32.368Z,87.50
2023-02-02T04:47:04.591Z,87.28
2023-02-02T04:47:37.001Z,87.69
2023-02-02T04:48:12.320Z,87.20
2023-02-02T04:48:48.460Z,86.88
2023-02-02T04:49:22.019Z,86.67
2023-02-02T04:49:56.695Z,86.71
2023-02-02T04:50:29.747Z,86.83
2023-02-02T04:51:04.005Z,86.96
2023-02-02T04:51:39.116Z,86.75
2023-02-02T04:52:12.029Z,86.57
2023-02-02T04:52:44.164Z,86.62
2023-02-02T04:53:18.842Z,85.82
2023-02-02T04:53:51.019Z,85.87
2023-02-02T04:54:23.143Z,85.48
2023-02-02T04:54:57.822Z,85.52
2023-02-02T04:55:29.929Z,85.62
2023-02-02T04:56:06.354Z,85.64
2023-02-02T04:56:41.199Z,85.88
2023-02-02T04:57:13.383Z,85.95
2023-02-02T04:57:45.620Z,85.97
2023-02-02T04:58:20.303Z,85.87
2023-02-02T04:58:54.256Z,85.37
2023-02-02T04:59:31.773Z,85.43
2023-02-02T05:00:04.647Z,85.44
2023-02-02T05:00:36.741Z,85.47
2023-02-02T05:01:12.810Z,85.57
2023-02-02T05:01:45.052Z,85.13
2023-02-02T05:02:17.316Z,84.90
2023-02-02T05:02:51.994Z,85.03
2023-02-02T05:03:24.271Z,84.68
2023-02-02T05:03:59.224Z,84.86
2023-02-02T05:04:34.003Z,84.65
2023-02-02T05:05:09.005Z,84.55
2023-02-02T05:05:41.118Z,84.53
2023-02-02T05:06:16.717Z,84.95
2023-02-02T05:06:48.864Z,84.64
2023-02-02T05:07:20.984Z,84.65
2023-02-02T05:07:56.010Z,84.19
2023-02-02T05:08:28.128Z,84.56
2023-02-02T05:09:01.284Z,84.58
2023-02-02T05:09:36.025Z,84.26
2023-02-02T05:10:09.971Z,84.08
2023-02-02T05:10:43.493Z,84.13
2023-02-02T05:11:21.271Z,84.46
2023-02-02T05:11:53.421Z,84.27
2023-02-02T05:12:25.680Z,84.02
2023-02-02T05:13:02.972Z,83.79
2023-02-02T05:13:35.191Z,83.82
2023-02-02T05:14:07.594Z,84.09
2023-02-02T05:14:42.283Z,83.93
2023-02-02T05:15:14.377Z,83.97
2023-02-02T05:15:46.578Z,83.66
2023-02-02T05:16:22.244Z,84.13
2023-02-02T05:16:54.556Z,83.56
2023-02-02T05:17:26.947Z,84.17
2023-02-02T05:18:01.681Z,83.67
2023-02-02T05:18:33.947Z,83.51
2023-02-02T05:19:11.809Z,83.77
2023-02-02T05:19:46.543Z,83.77
2023-02-02T05:20:19.196Z,83.46
2023-02-02T05:20:51.308Z,83.58
2023-02-02T05:21:26.930Z,83.90
2023-02-02T05:21:59.211Z,83.89
2023-02-02T05:22:31.330Z,83.44
2023-02-02T05:23:03.429Z,83.67
2023-02-02T05:23:38.822Z,83.36
2023-02-02T05:24:11.241Z,83.44
2023-02-02T05:24:43.408Z,83.30
2023-02-02T05:25:18.443Z,83.60
2023-02-02T05:25:53.224Z,83.55
2023-02-02T05:26:26.860Z,83.46
2023-02-02T05:27:01.759Z,83.15
2023-02-02T05:27:34.503Z,83.17
2023-02-02T05:28:06.655Z,83.07
2023-02-02T05:28:42.938Z,83.59
2023-02-02T05:29:15.100Z,83.58
2023-02-02T05:29:47.799Z,83.40
2023-02-02T05:30:22.703Z,83.19
2023-02-02T05:30:54.846Z,83.27
2023-02-02T05:31:27.300Z,83.44
2023-02-02T05:32:02.195Z,83.51
2023-02-02T05:32:34.313Z,83.11
2023-02-02T05:33:06.648Z,83.32
2023-02-02T05:33:38.828Z,83.19
2023-02-02T05:34:16.369Z,83.38
2023-02-02T05:34:48.479Z,83.01
2023-02-02T05:35:22.879Z,82.87
2023-02-02T05:36:00.690Z,83.28
2023-02-02T05:36:33.032Z,83.23
2023-02-02T05:37:05.121Z,82.94
2023-02-02T05:37:39.800Z,83.28
2023-02-02T05:38:11.893Z,83.05
2023-02-02T05:38:44.093Z,83.22
2023-02-02T05:39:16.210Z,82.79
2023-02-02T05:39:52.280Z,83.08
2023-02-02T05:40:25.361Z,83.32
2023-02-02T05:41:01.797Z,82.83
2023-02-02T05:41:58.354Z,83.17
2023-02-02T05:42:33.082Z,83.11
2023-02-02T05:43:05.185Z,83.06
2023-02-02T05:43:37.287Z,83.07
2023-02-02T05:44:12.877Z,82.76
2023-02-02T05:44:45.057Z,83.05
2023-02-02T05:45:17.417Z,83.22
2023-02-02T05:45:52.219Z,82.79
2023-02-02T05:46:24.347Z,83.13
2023-02-02T05:46:59.302Z,83.05
2023-02-02T05:47:31.416Z,82.69
2023-02-02T05:48:03.539Z,82.64
2023-02-02T05:48:38.352Z,82.92
2023-02-02T05:49:16.009Z,82.91
2023-02-02T05:49:50.842Z,82.67
2023-02-02T05:50:23.004Z,82.89
2023-02-02T05:51:12.992Z,82.90
2023-02-02T05:51:50.310Z,82.73
2023-02-02T05:52:25.219Z,82.86
2023-02-02T05:52:58.386Z,83.00
2023-02-02T05:53:33.821Z,82.63
2023-02-02T05:54:06.110Z,82.79
2023-02-02T05:54:38.211Z,82.45
2023-02-02T05:55:13.648Z,82.53
2023-02-02T05:55:45.852Z,82.48
2023-02-02T05:56:18.012Z,82.40
2023-02-02T05:56:54.790Z,82.92
2023-02-02T05:57:28.115Z,82.43
2023-02-02T05:58:00.319Z,82.39
2023-02-02T05:58:35.013Z,82.37
2023-02-02T05:59:07.621Z,82.57
2023-02-02T05:59:39.731Z,82.70
2023-02-02T06:00:15.726Z,82.55
2023-02-02T06:00:47.902Z,82.73
2023-02-02T06:01:21.550Z,82.56
2023-02-02T06:01:56.257Z,82.36
2023-02-02T06:02:28.537Z,82.42
2023-02-02T06:03:00.658Z,82.42
2023-02-02T06:03:35.688Z,82.40
2023-02-02T06:04:07.921Z,82.15
2023-02-02T06:04:42.658Z,82.14
2023-02-02T06:05:17.439Z,81.90
2023-02-02T06:05:49.583Z,82.38
2023-02-02T06:06:21.872Z,82.28
2023-02-02T06:06:56.648Z,82.09
2023-02-02T06:07:28.906Z,82.47
2023-02-02T06:08:03.702Z,82.19
2023-02-02T06:08:36.288Z,82.48
2023-02-02T06:09:10.885Z,82.51
2023-02-02T06:09:45.550Z,82.34
2023-02-02T06:10:19.767Z,82.12
2023-02-02T06:10:51.937Z,82.26
2023-02-02T06:11:26.711Z,82.29
2023-02-02T06:11:58.937Z,82.21
2023-02-02T06:12:31.787Z,82.41
2023-02-02T06:13:06.470Z,81.99
2023-02-02T06:13:38.778Z,82.00
2023-02-02T06:14:10.960Z,82.09
2023-02-02T06:14:45.729Z,82.24
2023-02-02T06:15:18.057Z,82.24
2023-02-02T06:15:52.877Z,82.23
2023-02-02T06:16:25.320Z,82.08
2023-02-02T06:16:57.595Z,82.06
2023-02-02T06:17:32.406Z,81.78
2023-02-02T06:18:08.482Z,82.18
2023-02-02T06:18:40.939Z,81.82
2023-02-02T06:19:15.633Z,81.86
2023-02-02T06:19:50.356Z,81.72
2023-02-02T06:20:22.660Z,82.16
2023-02-02T06:20:59.975Z,82.14
2023-02-02T06:21:32.313Z,82.18
2023-02-02T06:22:07.396Z,81.73
2023-02-02T06:22:39.499Z,82.08
2023-02-02T06:23:11.782Z,82.00
2023-02-02T06:23:46.660Z,81.98
2023-02-02T06:24:18.915Z,82.04
2023-02-02T06:24:53.459Z,81.72
2023-02-02T06:25:28.536Z,81.73
2023-02-02T06:26:00.918Z,82.06
2023-02-02T06:26:35.724Z,82.15
2023-02-02T06:27:07.999Z,81.95
2023-02-02T06:27:40.131Z,82.00
2023-02-02T06:28:14.830Z,81.83
2023-02-02T06:28:50.107Z,82.14
2023-02-02T06:29:22.536Z,81.87
2023-02-02T06:29:57.186Z,81.83
2023-02-02T06:30:29.404Z,81.84
2023-02-02T06:31:05.187Z,81.61
2023-02-02T06:31:40.335Z,81.84
2023-02-02T06:32:12.529Z,81.76
2023-02-02T06:32:44.620Z,81.67
2023-02-02T06:33:19.469Z,81.97
2023-02-02T06:33:54.940Z,81.79
2023-02-02T06:34:27.194Z,81.82
2023-02-02T06:35:04.488Z,81.87
2023-02-02T06:35:36.689Z,81.97
2023-02-02T06:36:08.879Z,81.61
2023-02-02T06:36:44.422Z,81.69
2023-02-02T06:37:16.619Z,81.57
2023-02-02T06:37:49.310Z,81.80
2023-02-02T06:38:24.035Z,81.71
2023-02-02T06:38:57.752Z,81.60
2023-02-02T06:39:32.673Z,81.64
2023-02-02T06:40:06.567Z,81.48
2023-02-02T06:40:38.796Z,81.28
2023-02-02T06:41:13.495Z,81.58
2023-02-02T06:41:46.752Z,81.42
2023-02-02T06:42:21.715Z,81.79
2023-02-02T06:42:59.945Z,81.60
2023-02-02T06:43:32.056Z,81.34
2023-02-02T06:44:04.263Z,81.40
2023-02-02T06:44:39.075Z,81.49
2023-02-02T06:45:12.246Z,81.29
2023-02-02T06:45:44.460Z,81.20
2023-02-02T06:46:19.836Z,81.30
2023-02-02T06:46:52.124Z,81.52
2023-02-02T06:47:26.015Z,81.13
2023-02-02T06:48:04.263Z,81.04
2023-02-02T06:48:36.667Z,80.95
2023-02-02T06:49:09.266Z,81.12
2023-02-02T06:49:44.111Z,80.99
2023-02-02T06:50:19.203Z,80.87
2023-02-02T06:50:51.399Z,81.01
2023-02-02T06:51:26.308Z,80.67
2023-02-02T06:51:58.580Z,80.92
2023-02-02T06:52:34.895Z,81.13
2023-02-02T06:53:07.153Z,80.79
2023-02-02T06:53:39.253Z,81.15
2023-02-02T06:54:13.979Z,80.80
2023-02-02T06:54:46.311Z,80.85
2023-02-02T06:55:19.177Z,80.96
2023-02-02T06:55:57.566Z,80.73
2023-02-02T06:56:30.027Z,80.87
2023-02-02T06:57:02.319Z,80.97
2023-02-02T06:57:37.014Z,80.71
2023-02-02T06:58:09.228Z,80.91
2023-02-02T06:58:41.503Z,80.67
2023-02-02T06:59:16.181Z,80.67
2023-02-02T06:59:48.412Z,80.87
2023-02-02T07:00:21.115Z,80.40
2023-02-02T07:00:56.853Z,80.55
2023-02-02T07:01:29.023Z,80.37
2023-02-02T07:02:03.837Z,80.15
2023-02-02T07:02:36.111Z,80.35
2023-02-02T07:03:08.598Z,80.59
2023-02-02T07:03:43.594Z,80.47
2023-02-02T07:04:17.184Z,80.38
2023-02-02T07:04:49.352Z,80.56
2023-02-02T07:05:30.317Z,80.35
2023-02-02T07:06:14.582Z,80.48
2023-02-02T07:06:49.439Z,79.87
2023-02-02T07:07:21.912Z,80.36
2023-02-02T07:07:54.106Z,80.19
2023-02-02T07:08:29.371Z,80.11
2023-02-02T07:09:03.378Z,79.76
2023-02-02T07:09:36.184Z,80.01
2023-02-02T07:11:09.222Z,80.20
2023-02-02T07:11:12.670Z,79.76
2023-02-02T07:11:49.515Z,79.75
2023-02-02T07:12:21.690Z,79.97
2023-02-02T07:12:54.500Z,79.97
2023-02-02T07:13:29.314Z,79.70
2023-02-02T07:14:02.070Z,79.78
2023-02-02T07:14:36.789Z,79.69
2023-02-02T07:15:09.900Z,79.69
2023-02-02T07:15:42.441Z,79.72
2023-02-02T07:16:17.759Z,79.67
2023-02-02T07:16:50.043Z,79.84
2023-02-02T07:17:24.760Z,79.47
2023-02-02T07:17:56.910Z,79.39
2023-02-02T07:18:29.016Z,79.62
2023-02-02T07:19:03.965Z,79.55
2023-02-02T07:19:36.418Z,79.60
2023-02-02T07:20:09.656Z,79.48
2023-02-02T07:20:46.950Z,79.54
2023-02-02T07:21:21.609Z,79.31
2023-02-02T07:21:53.794Z,79.35
2023-02-02T07:22:28.692Z,79.12
2023-02-02T07:23:02.664Z,79.21
2023-02-02T07:23:34.871Z,79.18
2023-02-02T07:24:10.650Z,79.05
2023-02-02T07:24:45.718Z,79.05
2023-02-02T07:25:18.076Z,78.97
2023-02-02T07:25:52.783Z,78.63
2023-02-02T07:26:24.984Z,78.72
2023-02-02T07:27:00.592Z,78.98
2023-02-02T07:27:33.296Z,78.89
2023-02-02T07:28:05.538Z,78.50
2023-02-02T07:28:40.237Z,78.80
2023-02-02T07:29:14.157Z,78.65
2023-02-02T07:29:46.277Z,78.56
2023-02-02T07:30:24.186Z,78.68
2023-02-02T07:30:56.573Z,78.58
2023-02-02T07:31:33.564Z,78.18
2023-02-02T07:32:07.739Z,78.04
2023-02-02T07:32:42.637Z,78.17
2023-02-02T07:33:14.711Z,78.56
2023-02-02T07:33:48.278Z,77.85
2023-02-02T07:34:23.010Z,77.92
2023-02-02T07:34:55.191Z,77.92
2023-02-02T07:35:27.309Z,78.11
2023-02-02T07:36:04.636Z,78.21
2023-02-02T07:36:37.350Z,78.15
2023-02-02T07:37:12.564Z,77.92
2023-02-02T07:37:44.728Z,77.98
2023-02-02T07:38:16.926Z,77.98
2023-02-02T07:38:53.980Z,78.25
2023-02-02T07:39:26.243Z,78.27
2023-02-02T07:40:00.944Z,77.78
2023-02-02T07:40:33.090Z,77.90
2023-02-02T07:41:05.602Z,77.69
2023-02-02T07:41:40.543Z,77.78
2023-02-02T07:42:20.743Z,77.74
2023-02-02T07:42:55.498Z,77.64
2023-02-02T07:43:27.875Z,77.80
2023-02-02T07:44:02.574Z,77.66
2023-02-02T07:44:34.724Z,77.99
2023-02-02T07:45:27.184Z,77.63
2023-02-02T07:46:02.900Z,77.79
2023-02-02T07:46:37.726Z,77.91
2023-02-02T07:47:10.887Z,77.64
2023-02-02T07:47:43.110Z,77.42
2023-02-02T07:48:17.897Z,77.74
2023-02-02T07:48:53.213Z,77.46
2023-02-02T07:49:27.902Z,77.67
2023-02-02T07:49:59.996Z,77.40
2023-02-02T07:50:32.440Z,77.17
2023-02-02T07:51:14.114Z,77.23
2023-02-02T07:51:49.236Z,77.30
2023-02-02T07:52:24.077Z,76.83
2023-02-02T07:52:56.507Z,77.14
2023-02-02T07:53:31.889Z,77.43
2023-02-02T07:54:04.469Z,77.42
2023-02-02T07:54:36.675Z,77.15
2023-02-02T07:55:26.546Z,77.17
2023-02-02T07:56:07.272Z,76.91
2023-02-02T07:56:41.767Z,77.12
2023-02-02T07:57:13.973Z,77.08
2023-02-02T07:57:46.291Z,77.15
2023-02-02T07:58:21.089Z,77.23
2023-02-02T07:58:55.119Z,77.12
2023-02-02T07:59:32.237Z,76.94
2023-02-02T08:00:09.902Z,77.03
2023-02-02T08:00:46.993Z,76.70
2023-02-02T08:01:20.680Z,76.97
2023-02-02T08:01:55.653Z,76.86
2023-02-02T08:02:27.952Z,77.01
2023-02-02T08:03:03.183Z,77.11
2023-02-02T08:03:36.736Z,76.87
2023-02-02T08:04:11.543Z,77.04
2023-02-02T08:04:43.781Z,76.53
2023-02-02T08:05:16.122Z,76.11
2023-02-02T08:05:51.180Z,76.52
2023-02-02T08:06:28.567Z,76.61
2023-02-02T08:07:03.356Z,76.21
2023-02-02T08:07:35.699Z,76.17
2023-02-02T08:08:07.973Z,76.17
2023-02-02T08:08:42.763Z,76.53
2023-02-02T08:09:14.934Z,76.63
2023-02-02T08:09:48.029Z,75.99
2023-02-02T08:10:22.905Z,75.97
2023-02-02T08:10:55.217Z,76.14
2023-02-02T08:11:30.795Z,75.81
2023-02-02T08:12:02.970Z,75.84
2023-02-02T08:12:35.126Z,76.19
2023-02-02T08:13:10.042Z,75.89
2023-02-02T08:13:43.206Z,75.76
2023-02-02T08:14:17.917Z,75.91
2023-02-02T08:14:50.330Z,75.76
2023-02-02T08:15:22.459Z,75.50
2023-02-02T08:16:00.329Z,75.70
2023-02-02T08:16:33.359Z,75.64
2023-02-02T08:17:08.046Z,75.54
2023-02-02T08:17:40.416Z,75.53
2023-02-02T08:18:15.587Z,75.35
2023-02-02T08:18:48.458Z,75.68
2023-02-02T08:19:23.212Z,75.40
2023-02-02T08:19:55.311Z,75.54
2023-02-02T08:20:27.409Z,75.71
2023-02-02T08:21:02.710Z,75.83
2023-02-02T08:21:37.851Z,75.63
2023-02-02T08:22:10.016Z,75.81
2023-02-02T08:22:44.874Z,75.59
2023-02-02T08:23:17.159Z,75.51
2023-02-02T08:23:52.382Z,75.41
2023-02-02T08:24:25.136Z,75.33
2023-02-02T08:24:59.828Z,75.36
2023-02-02T08:25:31.941Z,75.65
2023-02-02T08:26:11.576Z,75.06
2023-02-02T08:26:43.734Z,75.38
2023-02-02T08:27:19.245Z,75.48
2023-02-02T08:27:54.176Z,75.27
2023-02-02T08:28:28.953Z,75.05
2023-02-02T08:29:03.115Z,75.36
2023-02-02T08:29:38.648Z,75.13
2023-02-02T08:30:12.649Z,75.18
2023-02-02T08:30:47.661Z,75.17
2023-02-02T08:31:22.937Z,75.45
2023-02-02T08:31:58.888Z,74.86
2023-02-02T08:32:31.485Z,75.05
2023-02-02T08:33:03.788Z,75.12
2023-02-02T08:33:39.751Z,74.63
2023-02-02T08:34:14.125Z,74.84
2023-02-02T08:34:52.015Z,74.79
2023-02-02T08:35:24.514Z,74.87
2023-02-02T08:35:59.551Z,74.87
2023-02-02T08:36:33.110Z,74.51
2023-02-02T08:37:10.598Z,74.59
2023-02-02T08:37:42.741Z,74.65
2023-02-02T08:38:17.417Z,74.88
2023-02-02T08:38:50.334Z,74.64
2023-02-02T08:39:25.057Z,74.85
2023-02-02T08:39:57.302Z,74.96
2023-02-02T08:40:32.292Z,74.26
2023-02-02T08:41:05.816Z,74.61
2023-02-02T08:41:42.094Z,74.64
2023-02-02T08:42:14.222Z,74.63
2023-02-02T08:42:51.325Z,74.34
2023-02-02T08:43:23.532Z,74.39
2023-02-02T08:43:58.559Z,74.18
2023-02-02T08:44:51.765Z,73.91
2023-02-02T08:46:13.553Z,74.00
2023-02-02T08:46:19.836Z,74.00
2023-02-02T08:46:54.905Z,73.90
2023-02-02T08:47:30.090Z,73.92
2023-02-02T08:48:11.779Z,73.70
2023-02-02T08:48:45.381Z,73.43
2023-02-02T08:49:18.040Z,73.76
2023-02-02T08:49:52.761Z,73.57
2023-02-02T08:50:25.146Z,73.72
2023-02-02T08:50:59.199Z,73.34
2023-02-02T08:51:33.960Z,73.31
2023-02-02T08:52:08.696Z,73.57
2023-02-02T08:52:43.504Z,73.57
2023-02-02T08:53:15.708Z,72.67
2023-02-02T08:53:50.889Z,73.25
2023-02-02T08:54:23.366Z,73.15
2023-02-02T08:54:58.128Z,72.92
2023-02-02T08:55:30.302Z,73.19
2023-02-02T08:56:07.029Z,73.06
2023-02-02T08:56:39.266Z,72.63
2023-02-02T08:57:11.361Z,72.88
2023-02-02T08:57:46.220Z,73.08
2023-02-02T08:58:18.316Z,72.93
2023-02-02T08:58:55.225Z,72.72
2023-02-02T08:59:27.715Z,72.76
2023-02-02T09:00:00.202Z,72.49
2023-02-02T09:00:35.160Z,72.92
2023-02-02T09:01:08.693Z,72.38
2023-02-02T09:01:43.543Z,72.50
2023-02-02T09:02:16.941Z,72.72
2023-02-02T09:02:50.838Z,72.62
2023-02-02T09:03:25.588Z,72.70
2023-02-02T09:03:59.613Z,72.64
2023-02-02T09:04:34.558Z,72.89
2023-02-02T09:05:07.744Z,72.71
2023-02-02T09:05:42.574Z,72.91
2023-02-02T09:06:16.651Z,72.37
2023-02-02T09:06:51.414Z,72.66
2023-02-02T09:07:26.127Z,72.36
2023-02-02T09:08:00.840Z,72.95
2023-02-02T09:08:34.199Z,72.95
2023-02-02T09:09:10.746Z,72.50
2023-02-02T09:09:45.575Z,72.95
2023-02-02T09:10:20.585Z,73.17
2023-02-02T09:10:52.871Z,73.23
2023-02-02T09:11:27.874Z,73.35
2023-02-02T09:12:00.860Z,73.32
2023-02-02T09:12:35.564Z,73.61
2023-02-02T09:13:07.787Z,73.67
2023-02-02T09:13:41.430Z,73.54
2023-02-02T09:14:18.280Z,73.70
2023-02-02T09:14:50.526Z,73.38
2023-02-02T09:15:25.697Z,73.19
2023-02-02T09:16:00.153Z,72.89
2023-02-02T09:16:35.794Z,73.01
2023-02-02T09:17:08.239Z,73.10
2023-02-02T09:17:43.000Z,73.34
2023-02-02T09:18:15.095Z,73.29
2023-02-02T09:18:50.151Z,73.29
2023-02-02T09:19:22.395Z,73.21
2023-02-02T09:19:57.175Z,73.12
2023-02-02T09:20:29.339Z,72.73
2023-02-02T09:21:03.024Z,73.00
2023-02-02T09:21:38.795Z,72.92
2023-02-02T09:22:11.029Z,73.09
2023-02-02T09:22:48.381Z,72.92
2023-02-02T09:23:21.236Z,73.08
2023-02-02T09:23:57.023Z,73.14
2023-02-02T09:24:29.562Z,73.13
2023-02-02T09:25:04.662Z,72.90
2023-02-02T09:25:36.773Z,72.92
2023-02-02T09:26:13.274Z,72.91
2023-02-02T09:26:46.159Z,72.84
2023-02-02T09:27:21.087Z,72.60
2023-02-02T09:27:53.421Z,72.93
2023-02-02T09:28:28.186Z,72.92
2023-02-02T09:29:02.803Z,72.56
2023-02-02T09:29:37.592Z,72.77
2023-02-02T09:30:11.244Z,72.86
2023-02-02T09:30:43.428Z,72.99
2023-02-02T09:31:18.595Z,72.98
2023-02-02T09:31:52.800Z,72.87
2023-02-02T09:32:27.819Z,72.81
2023-02-02T09:33:00.100Z,72.45
2023-02-02T09:33:32.254Z,72.64
2023-02-02T09:34:09.163Z,72.75
2023-02-02T09:34:41.561Z,72.51
2023-02-02T09:35:16.474Z,72.83
2023-02-02T09:35:48.799Z,72.52
2023-02-02T09:36:22.845Z,72.90
2023-02-02T09:36:57.623Z,72.78
2023-02-02T09:37:30.044Z,72.58
2023-02-02T09:38:07.325Z,72.65
2023-02-02T09:38:40.781Z,72.90
2023-02-02T09:39:17.871Z,73.22
2023-02-02T09:39:49.965Z,73.28
2023-02-02T09:40:28.000Z,72.96
2023-02-02T09:41:00.379Z,73.33
2023-02-02T09:42:14.103Z,73.21
2023-02-02T09:43:00.081Z,73.37
2023-02-02T09:43:48.903Z,73.33
2023-02-02T09:44:34.968Z,72.96
2023-02-02T09:45:14.875Z,72.83
2023-02-02T09:46:01.039Z,73.17
2023-02-02T09:46:47.632Z,73.22
2023-02-02T09:47:24.207Z,72.92
2023-02-02T09:48:02.591Z,73.13
2023-02-02T09:48:44.496Z,72.85
2023-02-02T09:49:24.062Z,73.24
2023-02-02T09:50:04.104Z,73.00
2023-02-02T09:50:49.376Z,72.69
2023-02-02T09:51:27.145Z,73.16
2023-02-02T09:52:06.384Z,72.97
2023-02-02T09:52:42.847Z,73.14
2023-02-02T09:53:27.315Z,72.92
2023-02-02T09:54:06.998Z,73.15
2023-02-02T09:54:46.530Z,73.50
2023-02-02T09:55:28.030Z,73.65
2023-02-02T09:56:07.037Z,73.64
2023-02-02T09:56:43.299Z,73.58
2023-02-02T09:57:23.289Z,73.74
2023-02-02T09:58:00.915Z,74.09
2023-02-02T09:58:39.169Z,74.08
2023-02-02T09:59:21.406Z,73.75
2023-02-02T09:59:57.799Z,74.27
2023-02-02T13:12:46.715Z,69.90
2023-02-02T13:13:24.611Z,70.35
2023-02-02T13:14:01.212Z,70.61
2023-02-02T13:14:40.254Z,70.35
2023-02-02T13:15:17.562Z,70.75
2023-02-02T13:15:56.957Z,71.15
2023-02-02T13:16:32.620Z,70.63
2023-02-02T13:17:14.391Z,70.77
2023-02-02T13:17:51.428Z,70.95
2023-02-02T13:18:30.464Z,70.96
2023-02-02T13:19:07.601Z,70.66
2023-02-02T13:19:48.696Z,70.84
2023-02-02T13:20:33.863Z,70.75
2023-02-02T13:21:15.440Z,70.53
2023-02-02T13:21:48.703Z,70.72
2023-02-02T13:22:28.292Z,70.86
2023-02-02T13:23:05.167Z,70.66
2023-02-02T13:23:45.102Z,70.40
2023-02-02T13:24:27.470Z,70.08
2023-02-02T13:25:05.444Z,70.12
2023-02-02T13:25:44.685Z,70.23
2023-02-02T13:26:22.424Z,70.38
2023-02-02T13:26:57.676Z,70.10
2023-02-02T13:27:33.879Z,69.80
2023-02-02T13:28:20.643Z,69.75
2023-02-02T13:29:00.642Z,69.76
2023-02-02T13:29:46.015Z,69.75
2023-02-02T13:30:32.116Z,69.83
2023-02-02T13:31:11.959Z,69.60
2023-02-02T13:31:53.242Z,69.48
2023-02-02T13:32:29.810Z,69.80
2023-02-02T13:33:09.000Z,69.71
2023-02-02T13:33:43.837Z,69.72
2023-02-02T13:34:24.192Z,69.48
2023-02-02T13:34:59.278Z,69.37
2023-02-02T13:35:38.169Z,69.78
2023-02-02T13:36:18.236Z,69.36
2023-02-02T13:36:57.769Z,69.55
2023-02-02T13:37:37.367Z,69.34
2023-02-02T13:38:20.966Z,69.50
2023-02-02T13:38:56.363Z,69.27
2023-02-02T13:39:36.795Z,69.34
2023-02-02T13:40:23.249Z,69.31
2023-02-02T13:41:00.240Z,69.05
2023-02-02T13:41:32.860Z,69.27
2023-02-02T13:42:16.961Z,68.79
2023-02-02T13:42:57.859Z,68.97
2023-02-02T13:43:40.326Z,69.10
2023-02-02T13:44:23.854Z,68.66
2023-02-02T13:45:02.318Z,69.05
2023-02-02T13:45:47.998Z,69.00
2023-02-02T13:46:30.421Z,68.95
2023-02-02T13:47:15.455Z,68.53
2023-02-02T13:47:54.865Z,69.02
2023-02-02T13:48:41.501Z,69.10
2023-02-02T13:49:18.405Z,69.09
2023-02-02T13:49:59.418Z,68.78
2023-02-02T13:50:42.796Z,68.67
2023-02-02T13:51:50.508Z,68.61
2023-02-02T13:52:40.949Z,68.80
2023-02-02T13:53:39.710Z,69.02
2023-02-02T13:54:52.979Z,69.12
2023-02-02T13:55:47.291Z,69.27
2023-02-02T13:56:39.965Z,69.38
2023-02-02T13:57:27.221Z,69.04
2023-02-02T13:58:27.982Z,68.91
2023-02-02T13:59:14.144Z,69.13
2023-02-02T14:00:03.517Z,69.12
2023-02-02T14:00:42.714Z,69.47
2023-02-02T14:01:21.587Z,69.07
2023-02-02T14:01:55.073Z,69.55
2023-02-02T14:02:33.738Z,69.39
2023-02-02T14:03:24.007Z,69.35
2023-02-02T14:04:01.435Z,68.85
2023-02-02T14:04:38.961Z,68.80
2023-02-02T14:05:23.128Z,68.91
2023-02-02T14:06:08.209Z,68.82
2023-02-02T14:06:56.911Z,68.99
2023-02-02T14:07:41.532Z,68.79
2023-02-02T14:08:19.256Z,68.88
2023-02-02T14:08:57.008Z,68.94
2023-02-02T14:09:32.464Z,69.07
2023-02-02T14:10:16.677Z,69.09
2023-02-02T14:10:59.384Z,68.71
2023-02-02T14:11:36.367Z,69.01
2023-02-02T14:12:10.834Z,69.08
2023-02-02T14:12:44.497Z,68.83
2023-02-02T14:13:43.443Z,68.95